Time;durP1;ratioP1;P1;durP2;ratioP2;P2;SDS_P1;SDS_P2;PMS_P1;PMS_P2;Temp;Humidity;BMP_temperature;BMP_pressure;BME280_temperature;BME280_humidity;BME280_pressure;Samples;Min_cycle;Max_cycle;Signal;HPM_P1;HPM_P2
2023/03/04 00:00:53;;;;;;;;;;;6.00;99.90;;;;;;5001510;28;20028;-70
2023/03/04 00:03:22;;;;;;;;;;;6.10;99.90;;;;;;4999588;28;19952;-71
2023/03/04 00:05:47;;;;;;;;;;;5.90;99.90;;;;;;4997028;28;19934;-70
2023/03/04 00:08:13;;;;;;;;;;;6.20;99.90;;;;;;5014621;28;19925;-72
2023/03/04 00:10:41;;;;;;;;;;;7.50;99.90;;;;;;5005804;28;19921;-71
2023/03/04 00:13:07;;;;;;;;;;;6.60;99.90;;;;;;5023512;28;19929;-71
2023/03/04 00:15:32;;;;;;;;;;;7.40;99.90;;;;;;5005596;28;20039;-71
2023/03/04 00:17:58;;;;;;;;;;;6.40;99.90;;;;;;5005706;28;20004;-70
2023/03/04 00:20:23;;;;;;;;;;;5.90;99.90;;;;;;5021354;28;19976;-70
2023/03/04 00:22:49;;;;;;;;;;;5.90;99.90;;;;;;5007478;28;19936;-71
2023/03/04 00:25:14;;;;;;;;;;;5.90;99.90;;;;;;5021676;28;19925;-71
2023/03/04 00:27:40;;;;;;;;;;;5.90;99.90;;;;;;5020247;28;20278;-71
2023/03/04 00:30:06;;;;;;;;;;;6.40;99.90;;;;;;5024215;28;20297;-71
2023/03/04 00:32:31;;;;;;;;;;;6.00;99.90;;;;;;5005015;28;19929;-71
2023/03/04 00:34:57;;;;;;;;;;;7.70;99.90;;;;;;5016059;28;20632;-71
2023/03/04 00:37:23;;;;;;;;;;;7.50;99.90;;;;;;4995588;28;20714;-71
2023/03/04 00:39:48;;;;;;;;;;;6.00;99.90;;;;;;5007098;28;19925;-71
2023/03/04 00:42:14;;;;;;;;;;;6.90;99.90;;;;;;5004670;28;19930;-70
2023/03/04 00:44:39;;;;;;;;;;;6.40;99.90;;;;;;5007122;28;19928;-71
2023/03/04 00:47:05;;;;;;;;;;;6.80;99.90;;;;;;5015753;28;19929;-70
2023/03/04 00:49:30;;;;;;;;;;;5.90;99.90;;;;;;5024385;28;19990;-71
2023/03/04 00:51:56;;;;;;;;;;;5.80;99.90;;;;;;5020263;28;20021;-71
2023/03/04 00:54:21;;;;;;;;;;;6.70;99.90;;;;;;5004309;28;20035;-70
2023/03/04 00:56:47;;;;;;;;;;;5.80;99.90;;;;;;5003852;28;20111;-70
2023/03/04 00:59:12;;;;;;;;;;;7.00;99.90;;;;;;5007326;28;19925;-70
2023/03/04 01:01:38;;;;;;;;;;;7.20;99.90;;;;;;5002279;28;19930;-70
2023/03/04 01:04:04;;;;;;;;;;;6.00;99.90;;;;;;5003315;28;19964;-70
2023/03/04 01:06:29;;;;;;;;;;;7.10;99.90;;;;;;5005152;28;20014;-70
2023/03/04 01:08:55;;;;;;;;;;;6.90;99.90;;;;;;5004803;28;19925;-70
2023/03/04 01:11:20;;;;;;;;;;;5.80;99.90;;;;;;5021705;28;19922;-70
2023/03/04 01:13:46;;;;;;;;;;;5.80;99.90;;;;;;5016664;28;19925;-70
2023/03/04 01:16:17;;;;;;;;;;;5.80;99.90;;;;;;5006969;28;19936;-70
2023/03/04 01:18:43;;;;;;;;;;;5.80;99.90;;;;;;5017325;28;19922;-70
2023/03/04 01:21:09;;;;;;;;;;;5.90;99.90;;;;;;5023644;28;19971;-71
2023/03/04 01:23:34;;;;;;;;;;;5.90;99.90;;;;;;5018956;28;19921;-70
2023/03/04 01:26:00;;;;;;;;;;;5.80;99.90;;;;;;5021492;28;20423;-71
2023/03/04 01:28:26;;;;;;;;;;;5.80;99.90;;;;;;5004003;28;19968;-71
2023/03/04 01:30:51;;;;;;;;;;;6.00;99.90;;;;;;5005119;28;19968;-70
2023/03/04 01:33:17;;;;;;;;;;;7.10;99.90;;;;;;5003955;28;19980;-71
2023/03/04 01:35:42;;;;;;;;;;;5.80;99.90;;;;;;5022361;28;19929;-70
2023/03/04 01:38:08;;;;;;;;;;;5.80;99.90;;;;;;5002903;28;19929;-71
2023/03/04 01:40:33;;;;;;;;;;;7.40;99.90;;;;;;5005698;28;19929;-71
2023/03/04 01:42:59;;;;;;;;;;;6.20;99.90;;;;;;5020668;28;19932;-70
2023/03/04 01:45:24;;;;;;;;;;;5.80;99.90;;;;;;5022445;28;19972;-71
2023/03/04 01:47:50;;;;;;;;;;;5.80;99.90;;;;;;5022283;28;19925;-71
2023/03/04 01:50:19;;;;;;;;;;;6.80;99.90;;;;;;5022327;28;19925;-70
2023/03/04 01:52:44;;;;;;;;;;;6.40;99.90;;;;;;5003712;28;19930;-70
2023/03/04 01:55:14;;;;;;;;;;;6.60;99.90;;;;;;5023086;28;20341;-70
2023/03/04 01:57:40;;;;;;;;;;;5.80;99.90;;;;;;5019955;28;19933;-71
2023/03/04 02:00:13;;;;;;;;;;;6.70;99.90;;;;;;5005272;28;19925;-70
2023/03/04 02:02:39;;;;;;;;;;;5.80;99.90;;;;;;5002855;28;19929;-70
2023/03/04 02:05:04;;;;;;;;;;;7.00;99.90;;;;;;5005808;28;19932;-70
2023/03/04 02:07:30;;;;;;;;;;;5.80;99.90;;;;;;5020138;28;19925;-70
2023/03/04 02:09:55;;;;;;;;;;;7.00;99.90;;;;;;5020322;28;19948;-71
2023/03/04 02:12:21;;;;;;;;;;;5.80;99.90;;;;;;5007073;28;20404;-70
2023/03/04 02:14:46;;;;;;;;;;;5.80;99.90;;;;;;5026259;28;19925;-70
2023/03/04 02:17:12;;;;;;;;;;;6.10;99.90;;;;;;5007167;28;19926;-70
2023/03/04 02:19:48;;;;;;;;;;;8.30;99.90;;;;;;5008203;28;19932;-71
2023/03/04 02:22:13;;;;;;;;;;;5.80;99.90;;;;;;5008159;28;19948;-70
2023/03/04 02:24:44;;;;;;;;;;;5.80;99.90;;;;;;5007014;28;19925;-70
2023/03/04 02:27:10;;;;;;;;;;;6.40;99.90;;;;;;5006536;28;20004;-70
2023/03/04 02:29:35;;;;;;;;;;;5.80;99.90;;;;;;5008580;28;20355;-70
2023/03/04 02:32:03;;;;;;;;;;;7.20;99.90;;;;;;5005944;28;19931;-70
2023/03/04 02:34:31;;;;;;;;;;;5.80;99.90;;;;;;5027018;28;20390;-70
2023/03/04 02:36:57;;;;;;;;;;;7.50;99.90;;;;;;5024181;28;19933;-70
2023/03/04 02:39:33;;;;;;;;;;;6.60;99.90;;;;;;5025909;28;20288;-70
2023/03/04 02:42:00;;;;;;;;;;;5.80;99.90;;;;;;5020692;28;20348;-70
2023/03/04 02:44:27;;;;;;;;;;;5.80;99.90;;;;;;5009064;28;19932;-71
2023/03/04 02:46:52;;;;;;;;;;;6.80;99.90;;;;;;5023418;28;19925;-70
2023/03/04 02:49:18;;;;;;;;;;;6.20;99.90;;;;;;5026736;28;20364;-70
2023/03/04 02:51:44;;;;;;;;;;;7.70;99.90;;;;;;5006378;28;20380;-70
2023/03/04 02:54:14;;;;;;;;;;;6.10;99.90;;;;;;5024636;28;20414;-70
2023/03/04 02:56:43;;;;;;;;;;;5.90;99.90;;;;;;5007324;28;19932;-70
2023/03/04 02:59:09;;;;;;;;;;;6.70;99.90;;;;;;5025016;28;19948;-70
2023/03/04 03:01:34;;;;;;;;;;;7.10;99.90;;;;;;5018689;28;19930;-70
2023/03/04 03:04:00;;;;;;;;;;;5.80;99.90;;;;;;5026223;28;19980;-70
2023/03/04 03:06:25;;;;;;;;;;;6.00;99.90;;;;;;5004918;28;19929;-70
2023/03/04 03:08:51;;;;;;;;;;;6.00;99.90;;;;;;5009352;28;19975;-70
2023/03/04 03:11:16;;;;;;;;;;;7.10;99.90;;;;;;5023142;28;20024;-70
2023/03/04 03:13:42;;;;;;;;;;;7.50;99.90;;;;;;5024680;28;20269;-70
2023/03/04 03:16:07;;;;;;;;;;;5.90;99.90;;;;;;5007115;28;19925;-70
2023/03/04 03:18:33;;;;;;;;;;;6.40;99.90;;;;;;5024867;28;20026;-70
2023/03/04 03:21:01;;;;;;;;;;;5.90;99.90;;;;;;5007214;28;20019;-70
2023/03/04 03:23:27;;;;;;;;;;;5.70;99.90;;;;;;5021554;28;19932;-70
2023/03/04 03:25:55;;;;;;;;;;;6.10;99.90;;;;;;5023550;28;19925;-70
2023/03/04 03:28:21;;;;;;;;;;;5.90;99.90;;;;;;5007350;28;19929;-71
2023/03/04 03:30:46;;;;;;;;;;;5.80;99.90;;;;;;5023216;28;20348;-70
2023/03/04 03:33:12;;;;;;;;;;;7.40;99.90;;;;;;5024988;28;19921;-70
2023/03/04 03:35:37;;;;;;;;;;;5.90;99.90;;;;;;5022428;28;19929;-70
2023/03/04 03:38:03;;;;;;;;;;;6.50;99.90;;;;;;5024811;28;19931;-70
2023/03/04 03:40:28;;;;;;;;;;;6.40;99.90;;;;;;5024735;28;20295;-70
2023/03/04 03:42:54;;;;;;;;;;;6.30;99.90;;;;;;5005483;28;20317;-70
2023/03/04 03:45:19;;;;;;;;;;;6.70;99.90;;;;;;5025591;28;20427;-70
2023/03/04 03:47:45;;;;;;;;;;;6.80;99.90;;;;;;5022170;28;19983;-70
2023/03/04 03:50:11;;;;;;;;;;;6.40;99.90;;;;;;5004584;28;19932;-70
2023/03/04 03:52:36;;;;;;;;;;;6.00;99.90;;;;;;5022784;28;19934;-70
2023/03/04 03:55:02;;;;;;;;;;;6.00;99.90;;;;;;5007012;28;20304;-70
2023/03/04 03:57:28;;;;;;;;;;;6.00;99.90;;;;;;5005362;28;20349;-70
2023/03/04 03:59:54;;;;;;;;;;;6.20;99.90;;;;;;5021286;28;19926;-70
2023/03/04 04:02:19;;;;;;;;;;;6.20;99.90;;;;;;5006741;28;20012;-71
2023/03/04 04:04:45;;;;;;;;;;;6.00;99.90;;;;;;5004053;28;19925;-71
2023/03/04 04:07:13;;;;;;;;;;;6.70;99.90;;;;;;5025554;28;19925;-69
2023/03/04 04:09:39;;;;;;;;;;;6.10;99.90;;;;;;5019332;28;19929;-70
2023/03/04 04:12:05;;;;;;;;;;;6.80;99.90;;;;;;5004678;28;20063;-70
2023/03/04 04:14:31;;;;;;;;;;;6.10;99.90;;;;;;5006709;28;20386;-70
2023/03/04 04:16:56;;;;;;;;;;;6.10;99.90;;;;;;5005199;28;20032;-70
2023/03/04 04:19:22;;;;;;;;;;;6.10;99.90;;;;;;5001206;28;19944;-70
2023/03/04 04:21:47;;;;;;;;;;;6.10;99.90;;;;;;5005458;28;19939;-71
2023/03/04 04:24:13;;;;;;;;;;;6.10;99.90;;;;;;5006250;28;20008;-69
2023/03/04 04:26:39;;;;;;;;;;;7.40;99.90;;;;;;5004302;28;19980;-71
2023/03/04 04:29:04;;;;;;;;;;;6.00;99.90;;;;;;5006570;28;19931;-70
2023/03/04 04:31:30;;;;;;;;;;;6.00;99.90;;;;;;5003795;28;20332;-70
2023/03/04 04:33:55;;;;;;;;;;;7.60;99.90;;;;;;5023665;28;19928;-70
2023/03/04 04:36:21;;;;;;;;;;;6.80;99.90;;;;;;5023316;28;20319;-71
2023/03/04 04:38:48;;;;;;;;;;;5.90;99.90;;;;;;5004080;28;19967;-71
2023/03/04 04:41:28;;;;;;;;;;;5.90;99.90;;;;;;5024134;28;19925;-71
2023/03/04 04:43:53;;;;;;;;;;;5.90;99.90;;;;;;5023823;28;19925;-71
2023/03/04 04:46:19;;;;;;;;;;;8.00;99.90;;;;;;5004794;28;20308;-71
2023/03/04 04:48:45;;;;;;;;;;;7.10;99.90;;;;;;5022405;28;19926;-71
2023/03/04 04:51:10;;;;;;;;;;;6.00;99.90;;;;;;5024277;28;19929;-69
2023/03/04 04:53:36;;;;;;;;;;;6.00;99.90;;;;;;5019901;28;19948;-69
2023/03/04 04:56:12;;;;;;;;;;;6.00;99.90;;;;;;5024704;28;19925;-69
2023/03/04 04:58:41;;;;;;;;;;;6.00;99.90;;;;;;5018343;28;19933;-68
2023/03/04 05:01:13;;;;;;;;;;;5.90;99.90;;;;;;5005895;28;19925;-69
2023/03/04 05:03:39;;;;;;;;;;;6.90;99.90;;;;;;5021203;28;20312;-69
2023/03/04 05:06:05;;;;;;;;;;;6.20;99.90;;;;;;5023477;28;19925;-69
2023/03/04 05:08:31;;;;;;;;;;;5.80;99.90;;;;;;5020727;28;20369;-69
2023/03/04 05:10:56;;;;;;;;;;;7.20;99.90;;;;;;5003735;28;20020;-69
2023/03/04 05:13:22;;;;;;;;;;;5.70;99.90;;;;;;5022438;28;20381;-69
2023/03/04 05:15:51;;;;;;;;;;;6.60;99.90;;;;;;5004382;28;20292;-69
2023/03/04 05:18:16;;;;;;;;;;;5.80;99.90;;;;;;5022395;28;20380;-69
2023/03/04 05:20:42;;;;;;;;;;;5.90;99.90;;;;;;5016461;28;19937;-69
2023/03/04 05:23:07;;;;;;;;;;;6.90;99.90;;;;;;5005743;28;19925;-69
2023/03/04 05:25:33;;;;;;;;;;;6.10;99.90;;;;;;5020575;28;20277;-69
2023/03/04 05:28:00;;;;;;;;;;;5.80;99.90;;;;;;5005626;28;19925;-69
2023/03/04 05:30:26;;;;;;;;;;;5.80;99.90;;;;;;4998585;28;20282;-69
2023/03/04 05:32:52;;;;;;;;;;;6.40;99.90;;;;;;5005715;28;19932;-71
2023/03/04 05:35:17;;;;;;;;;;;5.80;99.90;;;;;;5003642;28;20368;-69
2023/03/04 05:37:43;;;;;;;;;;;6.10;99.90;;;;;;5004536;28;20337;-69
2023/03/04 05:40:09;;;;;;;;;;;7.30;99.90;;;;;;5022452;28;19925;-69
2023/03/04 05:42:34;;;;;;;;;;;5.80;99.90;;;;;;5020902;28;19948;-69
2023/03/04 05:45:00;;;;;;;;;;;5.80;99.90;;;;;;5002983;28;19976;-69
2023/03/04 05:47:25;;;;;;;;;;;5.80;99.90;;;;;;5023286;28;20016;-69
2023/03/04 05:49:51;;;;;;;;;;;6.10;99.90;;;;;;5019849;28;19929;-69
2023/03/04 05:52:16;;;;;;;;;;;5.70;99.90;;;;;;5022194;28;19933;-69
2023/03/04 05:54:42;;;;;;;;;;;5.70;99.90;;;;;;5021426;28;20278;-68
2023/03/04 05:57:08;;;;;;;;;;;5.80;99.90;;;;;;5021546;28;20427;-69
2023/03/04 05:59:33;;;;;;;;;;;5.70;99.90;;;;;;5003734;28;19933;-69
2023/03/04 06:01:59;;;;;;;;;;;5.70;99.90;;;;;;5023244;28;19929;-69
2023/03/04 06:04:24;;;;;;;;;;;5.70;99.90;;;;;;5019469;28;19925;-69
2023/03/04 06:06:50;;;;;;;;;;;6.20;99.90;;;;;;5002029;28;19925;-70
2023/03/04 06:09:15;;;;;;;;;;;5.70;99.90;;;;;;5004837;28;19974;-70
2023/03/04 06:11:41;;;;;;;;;;;5.70;99.90;;;;;;5003168;28;19925;-70
2023/03/04 06:14:06;;;;;;;;;;;5.80;99.90;;;;;;5021991;28;19925;-70
2023/03/04 06:16:32;;;;;;;;;;;5.80;99.90;;;;;;5003153;28;19932;-70
2023/03/04 06:18:57;;;;;;;;;;;5.80;99.90;;;;;;5003181;28;19926;-70
2023/03/04 06:21:26;;;;;;;;;;;7.10;99.90;;;;;;5023237;28;19932;-70
2023/03/04 06:23:51;;;;;;;;;;;5.80;99.90;;;;;;5019428;28;20060;-70
2023/03/04 06:26:17;;;;;;;;;;;7.20;99.90;;;;;;5023404;28;19998;-70
2023/03/04 06:28:43;;;;;;;;;;;7.30;99.90;;;;;;5002206;28;20347;-70
2023/03/04 06:31:08;;;;;;;;;;;6.50;99.90;;;;;;5004143;28;19929;-71
2023/03/04 06:33:34;;;;;;;;;;;5.80;99.90;;;;;;5011487;28;19932;-71
2023/03/04 06:36:00;;;;;;;;;;;6.20;99.90;;;;;;5001608;28;20426;-70
2023/03/04 06:38:25;;;;;;;;;;;5.70;99.90;;;;;;5020496;28;19925;-70
2023/03/04 06:40:51;;;;;;;;;;;6.10;99.90;;;;;;5019795;28;19925;-70
2023/03/04 06:43:17;;;;;;;;;;;6.30;99.90;;;;;;5001216;28;19926;-70
2023/03/04 06:45:42;;;;;;;;;;;5.70;99.90;;;;;;5003923;28;19925;-70
2023/03/04 06:48:08;;;;;;;;;;;5.70;99.90;;;;;;4997276;28;20377;-70
2023/03/04 06:50:33;;;;;;;;;;;5.90;99.90;;;;;;5021055;28;20020;-70
2023/03/04 06:52:59;;;;;;;;;;;5.70;99.90;;;;;;5016938;28;19925;-70
2023/03/04 06:55:24;;;;;;;;;;;5.80;99.90;;;;;;4986123;28;19930;-70
2023/03/04 06:57:50;;;;;;;;;;;6.10;99.90;;;;;;5004489;28;19968;-71
2023/03/04 07:00:16;;;;;;;;;;;5.80;99.90;;;;;;4999807;28;20341;-71
2023/03/04 07:02:41;;;;;;;;;;;3.90;99.90;;;;;;5019327;28;19948;-70
2023/03/04 07:05:09;;;;;;;;;;;5.90;99.90;;;;;;5005253;28;19921;-70
2023/03/04 07:07:34;;;;;;;;;;;5.90;99.90;;;;;;5007605;28;19940;-70
2023/03/04 07:10:00;;;;;;;;;;;6.70;99.90;;;;;;5023137;28;19921;-71
2023/03/04 07:12:25;;;;;;;;;;;6.00;99.90;;;;;;4989474;28;19978;-72
2023/03/04 07:14:51;;;;;;;;;;;6.10;99.90;;;;;;5024117;28;20016;-71
2023/03/04 07:17:16;;;;;;;;;;;6.10;99.90;;;;;;5026097;28;19928;-70
2023/03/04 07:19:43;;;;;;;;;;;6.10;99.90;;;;;;5019313;28;20010;-70
2023/03/04 07:22:09;;;;;;;;;;;6.90;99.90;;;;;;5009279;28;19936;-71
2023/03/04 07:24:34;;;;;;;;;;;6.10;99.90;;;;;;5005074;28;19921;-71
2023/03/04 07:27:00;;;;;;;;;;;7.40;99.90;;;;;;5007058;28;19975;-71
2023/03/04 07:29:28;;;;;;;;;;;6.10;99.90;;;;;;5005599;28;19925;-71
2023/03/04 07:31:54;;;;;;;;;;;6.60;99.90;;;;;;5024676;28;20072;-71
2023/03/04 07:34:20;;;;;;;;;;;6.50;99.90;;;;;;5001913;28;20007;-71
2023/03/04 07:36:45;;;;;;;;;;;6.10;99.90;;;;;;5020787;28;20381;-71
2023/03/04 07:39:12;;;;;;;;;;;7.50;99.90;;;;;;5001694;28;19932;-71
2023/03/04 07:41:38;;;;;;;;;;;6.80;99.90;;;;;;5001778;28;19926;-69
2023/03/04 07:44:04;;;;;;;;;;;6.00;99.90;;;;;;4993168;28;19976;-71
2023/03/04 07:46:30;;;;;;;;;;;6.00;99.90;;;;;;5002463;28;19984;-72
2023/03/04 07:48:55;;;;;;;;;;;6.00;99.90;;;;;;4995982;28;19925;-72
2023/03/04 07:51:22;;;;;;;;;;;6.10;99.90;;;;;;5013582;28;20278;-72
2023/03/04 07:53:49;;;;;;;;;;;8.10;99.90;;;;;;4995034;28;19932;-72
2023/03/04 07:56:16;;;;;;;;;;;8.00;99.90;;;;;;4994590;28;19976;-73
2023/03/04 07:58:41;;;;;;;;;;;8.30;99.90;;;;;;5013250;28;19930;-72
2023/03/04 08:01:14;;;;;;;;;;;6.90;99.90;;;;;;4996039;28;20312;-71
2023/03/04 08:03:40;;;;;;;;;;;6.80;99.90;;;;;;4995395;28;19925;-71
2023/03/04 08:06:06;;;;;;;;;;;7.40;99.90;;;;;;4996285;28;20032;-71
2023/03/04 08:08:32;;;;;;;;;;;6.80;99.90;;;;;;5013389;28;19925;-72
2023/03/04 08:10:58;;;;;;;;;;;6.80;99.90;;;;;;5012517;28;19985;-71
2023/03/04 08:13:23;;;;;;;;;;;6.80;99.90;;;;;;5012810;28;19979;-72
2023/03/04 08:15:49;;;;;;;;;;;6.80;99.90;;;;;;5012903;28;20312;-71
2023/03/04 08:18:14;;;;;;;;;;;6.80;99.90;;;;;;4995679;28;19925;-72
2023/03/04 08:20:41;;;;;;;;;;;7.80;99.90;;;;;;5012980;28;19949;-71
2023/03/04 08:23:07;;;;;;;;;;;6.80;99.90;;;;;;5012177;28;20400;-72
2023/03/04 08:25:33;;;;;;;;;;;6.90;99.90;;;;;;5012749;28;19925;-72
2023/03/04 08:27:58;;;;;;;;;;;7.00;99.90;;;;;;4995539;28;19929;-71
2023/03/04 08:30:24;;;;;;;;;;;6.90;99.90;;;;;;5011664;28;19936;-72
2023/03/04 08:32:51;;;;;;;;;;;6.80;99.90;;;;;;5014003;28;20020;-72
2023/03/04 08:35:19;;;;;;;;;;;7.00;99.90;;;;;;4997132;28;20007;-72
2023/03/04 08:37:45;;;;;;;;;;;7.00;99.90;;;;;;5012167;28;19926;-72
2023/03/04 08:40:11;;;;;;;;;;;7.00;99.90;;;;;;5012853;28;20012;-72
2023/03/04 08:42:37;;;;;;;;;;;6.90;99.90;;;;;;5012134;28;20381;-72
2023/03/04 08:45:02;;;;;;;;;;;8.70;99.90;;;;;;5012308;28;20380;-71
2023/03/04 08:47:28;;;;;;;;;;;7.00;99.90;;;;;;4994683;28;20032;-71
2023/03/04 08:49:53;;;;;;;;;;;7.10;99.90;;;;;;4995232;28;20021;-70
2023/03/04 08:52:19;;;;;;;;;;;7.20;99.90;;;;;;5011440;28;19929;-71
2023/03/04 08:54:45;;;;;;;;;;;7.10;99.90;;;;;;5012954;28;19980;-70
2023/03/04 08:57:10;;;;;;;;;;;6.90;99.90;;;;;;5012191;28;20373;-70
2023/03/04 08:59:36;;;;;;;;;;;7.50;99.90;;;;;;5016496;28;19925;-70
2023/03/04 09:02:01;;;;;;;;;;;6.80;99.90;;;;;;5022256;28;20415;-71
2023/03/04 09:04:27;;;;;;;;;;;6.80;99.90;;;;;;4996952;28;20391;-71
2023/03/04 09:06:52;;;;;;;;;;;7.20;99.90;;;;;;5003301;28;19925;-70
2023/03/04 09:09:18;;;;;;;;;;;6.90;99.90;;;;;;5001042;28;19929;-71
2023/03/04 09:11:43;;;;;;;;;;;7.40;99.90;;;;;;5004382;28;19999;-71
2023/03/04 09:14:09;;;;;;;;;;;7.80;99.90;;;;;;5019623;28;20426;-71
2023/03/04 09:16:34;;;;;;;;;;;6.80;99.90;;;;;;4998412;28;20012;-71
2023/03/04 09:19:00;;;;;;;;;;;7.00;99.90;;;;;;5005079;28;20022;-70
2023/03/04 09:21:26;;;;;;;;;;;6.90;99.90;;;;;;5020707;28;20377;-69
2023/03/04 09:23:51;;;;;;;;;;;6.80;99.90;;;;;;5023778;28;20281;-69
2023/03/04 09:26:24;;;;;;;;;;;8.10;99.90;;;;;;5011596;28;19958;-73
2023/03/04 09:28:52;;;;;;;;;;;6.80;99.90;;;;;;4998027;28;20301;-70
2023/03/04 09:31:18;;;;;;;;;;;8.00;99.90;;;;;;5016727;28;19929;-71
2023/03/04 09:33:44;;;;;;;;;;;9.30;99.90;;;;;;5014952;28;20032;-70
2023/03/04 09:36:10;;;;;;;;;;;7.00;99.90;;;;;;5022949;28;20044;-70
2023/03/04 09:38:37;;;;;;;;;;;7.90;99.90;;;;;;5003371;28;19972;-70
2023/03/04 09:41:23;;;;;;;;;;;7.00;99.90;;;;;;5021884;28;20391;-70
2023/03/04 09:43:51;;;;;;;;;;;6.90;99.90;;;;;;4990033;28;20308;-71
2023/03/04 09:46:34;;;;;;;;;;;7.60;99.90;;;;;;5020214;28;20345;-71
2023/03/04 09:49:00;;;;;;;;;;;7.00;99.90;;;;;;5015539;28;19925;-71
2023/03/04 09:51:35;;;;;;;;;;;7.10;99.90;;;;;;5021741;28;19932;-70
2023/03/04 09:54:00;;;;;;;;;;;7.10;99.90;;;;;;4998297;28;19929;-70
2023/03/04 09:56:26;;;;;;;;;;;7.50;99.90;;;;;;5015324;28;19972;-70
2023/03/04 09:59:08;;;;;;;;;;;7.90;99.90;;;;;;5002733;28;19925;-72
2023/03/04 10:01:52;;;;;;;;;;;7.40;99.90;;;;;;4998814;28;19932;-71
2023/03/04 10:04:21;;;;;;;;;;;7.30;99.90;;;;;;4999683;28;19937;-71
2023/03/04 10:06:53;;;;;;;;;;;7.30;99.90;;;;;;5021358;28;19925;-73
2023/03/04 10:09:21;;;;;;;;;;;7.20;99.90;;;;;;5016544;28;19936;-74
2023/03/04 10:11:49;;;;;;;;;;;8.60;99.90;;;;;;5020886;28;19926;-72
2023/03/04 10:14:25;;;;;;;;;;;7.20;99.90;;;;;;5023114;28;19925;-73
2023/03/04 10:17:11;;;;;;;;;;;7.20;99.90;;;;;;5016809;28;19932;-76
2023/03/04 10:19:40;;;;;;;;;;;7.50;99.90;;;;;;5001349;28;19933;-72
2023/03/04 10:22:24;;;;;;;;;;;8.10;99.90;;;;;;5001069;28;19933;-71
2023/03/04 10:24:52;;;;;;;;;;;8.40;99.90;;;;;;5018392;28;19933;-72
2023/03/04 10:27:18;;;;;;;;;;;8.80;99.90;;;;;;5018668;28;19984;-71
2023/03/04 10:29:47;;;;;;;;;;;8.80;99.90;;;;;;5022094;28;19979;-74
2023/03/04 10:32:15;;;;;;;;;;;11.40;99.90;;;;;;4996525;28;19937;-73
2023/03/04 10:34:40;;;;;;;;;;;10.20;99.90;;;;;;4994704;28;19932;-74
2023/03/04 10:37:07;;;;;;;;;;;8.20;99.90;;;;;;5022120;28;20296;-78
2023/03/04 10:39:44;;;;;;;;;;;8.50;99.90;;;;;;5008927;28;19933;-75
2023/03/04 10:42:12;;;;;;;;;;;7.80;99.90;;;;;;5018517;28;20024;-74
2023/03/04 10:44:43;;;;;;;;;;;7.80;99.90;;;;;;5007987;28;19921;-72
2023/03/04 10:47:15;;;;;;;;;;;9.20;99.90;;;;;;5020839;28;19929;-72
2023/03/04 10:49:54;;;;;;;;;;;8.60;99.90;;;;;;5000436;28;20342;-71
2023/03/04 10:52:22;;;;;;;;;;;8.70;99.90;;;;;;5016798;28;20285;-71
2023/03/04 10:54:52;;;;;;;;;;;8.90;99.90;;;;;;5023418;28;19961;-72
2023/03/04 10:57:17;;;;;;;;;;;9.50;99.90;;;;;;5025268;28;19925;-76
2023/03/04 10:59:49;;;;;;;;;;;10.30;99.90;;;;;;5023766;28;19925;-77
2023/03/04 11:02:21;;;;;;;;;;;10.70;99.90;;;;;;5006233;28;20006;-75
2023/03/04 11:05:04;;;;;;;;;;;10.60;99.90;;;;;;5025587;28;20000;-75
2023/03/04 11:07:29;;;;;;;;;;;10.10;99.90;;;;;;5017266;28;19965;-75
2023/03/04 11:10:05;;;;;;;;;;;10.30;99.90;;;;;;5017305;28;20388;-73
2023/03/04 11:12:33;;;;;;;;;;;9.20;99.90;;;;;;4999979;28;19925;-74
2023/03/04 11:14:58;;;;;;;;;;;8.90;99.90;;;;;;5019224;28;20131;-72
2023/03/04 11:17:25;;;;;;;;;;;8.60;99.90;;;;;;5001939;28;19925;-75
2023/03/04 11:19:54;;;;;;;;;;;9.40;99.90;;;;;;5012895;28;19979;-73
2023/03/04 11:22:21;;;;;;;;;;;8.40;99.90;;;;;;5016694;28;20527;-84
2023/03/04 11:24:50;;;;;;;;;;;8.50;99.90;;;;;;4997248;28;19933;-78
2023/03/04 11:27:25;;;;;;;;;;;8.70;99.90;;;;;;5015591;28;20372;-74
2023/03/04 11:29:53;;;;;;;;;;;8.50;99.90;;;;;;4997292;28;20023;-76
2023/03/04 11:32:24;;;;;;;;;;;8.40;99.90;;;;;;5014858;28;20373;-76
2023/03/04 11:34:57;;;;;;;;;;;8.30;99.90;;;;;;5013084;28;20540;-75
2023/03/04 11:37:28;;;;;;;;;;;8.30;99.90;;;;;;5015561;28;19932;-75
2023/03/04 11:40:06;;;;;;;;;;;8.70;99.90;;;;;;5015074;28;19934;-79
2023/03/04 11:42:37;;;;;;;;;;;9.30;99.90;;;;;;4996970;28;19976;-76
2023/03/04 11:45:09;;;;;;;;;;;9.50;99.90;;;;;;5015078;28;19979;-79
2023/03/04 11:47:53;;;;;;;;;;;9.70;99.90;;;;;;5000487;28;19934;-79
2023/03/04 11:50:26;;;;;;;;;;;9.50;99.90;;;;;;5000510;28;20020;-87
2023/03/04 11:53:24;;;;;;;;;;;9.40;99.90;;;;;;5010472;28;19933;-79
2023/03/04 11:55:56;;;;;;;;;;;9.00;99.90;;;;;;4942468;28;20284;-77
2023/03/04 11:58:40;;;;;;;;;;;8.90;99.90;;;;;;5017480;28;19930;-75
2023/03/04 12:01:09;;;;;;;;;;;8.60;99.90;;;;;;5013319;28;19929;-74
2023/03/04 12:03:50;;;;;;;;;;;8.50;99.90;;;;;;5015269;28;19991;-75
2023/03/04 12:06:34;;;;;;;;;;;8.50;99.90;;;;;;5026350;28;19964;-75
2023/03/04 12:09:09;;;;;;;;;;;8.60;99.90;;;;;;5018649;28;19926;-75
2023/03/04 12:11:44;;;;;;;;;;;9.70;99.90;;;;;;5009142;28;19925;-76
2023/03/04 12:14:17;;;;;;;;;;;8.60;99.90;;;;;;4993231;28;19985;-74
2023/03/04 12:17:02;;;;;;;;;;;8.70;99.90;;;;;;5018486;28;20380;-73
2023/03/04 12:19:50;;;;;;;;;;;8.60;99.90;;;;;;5011248;28;19930;-77
2023/03/04 12:22:28;;;;;;;;;;;8.50;99.90;;;;;;4999468;28;19933;-76
2023/03/04 12:25:02;;;;;;;;;;;8.40;99.90;;;;;;5004261;28;19936;-75
2023/03/04 12:27:43;;;;;;;;;;;9.30;99.90;;;;;;5020169;28;19975;-76
2023/03/04 12:30:20;;;;;;;;;;;8.50;99.90;;;;;;5024123;28;19969;-73
2023/03/04 12:32:51;;;;;;;;;;;8.50;99.90;;;;;;5005071;28;19967;-76
2023/03/04 12:35:29;;;;;;;;;;;8.60;99.90;;;;;;4996417;28;19926;-75
2023/03/04 12:37:55;;;;;;;;;;;8.50;99.90;;;;;;5018058;23;20043;-74
2023/03/04 12:40:20;;;;;;;;;;;8.60;99.90;;;;;;5012739;28;19944;-74
2023/03/04 12:42:55;;;;;;;;;;;9.00;99.90;;;;;;4997688;28;20300;-74
2023/03/04 12:45:21;;;;;;;;;;;8.90;99.90;;;;;;4997022;28;19968;-74
2023/03/04 12:48:02;;;;;;;;;;;9.20;99.90;;;;;;4998406;28;19961;-75
2023/03/04 12:50:27;;;;;;;;;;;9.30;99.90;;;;;;4993279;28;19925;-77
2023/03/04 12:52:59;;;;;;;;;;;9.50;99.90;;;;;;5009623;28;20216;-75
2023/03/04 12:55:34;;;;;;;;;;;9.40;99.90;;;;;;4994146;28;19925;-74
2023/03/04 12:58:00;;;;;;;;;;;9.20;99.90;;;;;;4993140;28;19931;-74
2023/03/04 13:00:28;;;;;;;;;;;9.60;99.90;;;;;;4994438;28;19944;-74
2023/03/04 13:02:54;;;;;;;;;;;9.90;99.90;;;;;;4994719;28;20024;-73
2023/03/04 13:05:32;;;;;;;;;;;10.20;99.90;;;;;;5011262;28;20016;-75
2023/03/04 13:08:01;;;;;;;;;;;9.90;99.90;;;;;;5007048;28;20373;-73
2023/03/04 13:10:26;;;;;;;;;;;10.40;99.90;;;;;;5012579;28;19949;-73
2023/03/04 13:12:53;;;;;;;;;;;10.30;99.90;;;;;;5013147;28;20399;-73
2023/03/04 13:15:25;;;;;;;;;;;10.00;99.90;;;;;;4997886;28;19972;-73
2023/03/04 13:17:50;;;;;;;;;;;9.60;99.90;;;;;;5000417;28;19960;-73
2023/03/04 13:20:31;;;;;;;;;;;9.50;99.90;;;;;;5017630;28;20015;-72
2023/03/04 13:23:20;;;;;;;;;;;9.30;99.90;;;;;;4990676;28;19929;-71
2023/03/04 13:25:55;;;;;;;;;;;9.10;99.90;;;;;;4993880;28;19971;-74
2023/03/04 13:28:22;;;;;;;;;;;8.90;99.90;;;;;;4996267;28;19930;-72
2023/03/04 13:30:48;;;;;;;;;;;8.60;99.90;;;;;;4998237;28;20289;-73
2023/03/04 13:33:33;;;;;;;;;;;8.40;99.90;;;;;;5015561;28;19926;-73
2023/03/04 13:36:00;;;;;;;;;;;8.20;99.90;;;;;;4996797;28;20324;-73
2023/03/04 13:38:26;;;;;;;;;;;7.70;99.90;;;;;;5012204;28;20274;-73
2023/03/04 13:41:11;;;;;;;;;;;6.60;99.90;;;;;;4990262;28;19937;-73
2023/03/04 13:43:52;;;;;;;;;;;7.70;99.90;;;;;;4994338;28;19925;-72
2023/03/04 13:46:18;;;;;;;;;;;7.80;99.90;;;;;;5009293;28;19932;-73
2023/03/04 13:48:49;;;;;;;;;;;8.00;99.90;;;;;;5003032;28;19925;-73
2023/03/04 13:51:24;;;;;;;;;;;7.90;99.90;;;;;;4996607;28;19994;-74
2023/03/04 13:53:54;;;;;;;;;;;8.00;99.90;;;;;;5014181;28;19925;-73
2023/03/04 13:56:21;;;;;;;;;;;8.20;99.90;;;;;;5014240;28;19925;-73
2023/03/04 13:58:48;;;;;;;;;;;8.60;99.90;;;;;;4993167;28;19932;-73
2023/03/04 14:01:25;;;;;;;;;;;8.70;99.90;;;;;;5011488;28;20083;-73
2023/03/04 14:03:50;;;;;;;;;;;8.80;99.90;;;;;;5000049;28;20001;-76
2023/03/04 14:06:18;;;;;;;;;;;9.00;99.90;;;;;;5016179;28;19972;-74
2023/03/04 14:08:45;;;;;;;;;;;9.50;99.90;;;;;;5017140;28;19925;-73
2023/03/04 14:11:12;;;;;;;;;;;9.00;99.90;;;;;;5004797;23;19936;-74
2023/03/04 14:13:37;;;;;;;;;;;9.90;99.90;;;;;;5015083;28;19933;-74
2023/03/04 14:16:03;;;;;;;;;;;9.10;99.90;;;;;;5015363;28;21244;-74
2023/03/04 14:18:29;;;;;;;;;;;8.80;99.90;;;;;;4998583;28;19926;-71
2023/03/04 14:20:57;;;;;;;;;;;8.50;99.90;;;;;;5009042;28;19925;-73
2023/03/04 14:23:31;;;;;;;;;;;8.30;99.90;;;;;;5007191;28;19929;-72
2023/03/04 14:26:03;;;;;;;;;;;8.30;99.90;;;;;;5011969;28;19925;-71
2023/03/04 14:28:29;;;;;;;;;;;8.20;99.90;;;;;;5017578;28;19925;-72
2023/03/04 14:30:55;;;;;;;;;;;10.10;99.90;;;;;;5006206;28;19926;-73
2023/03/04 14:33:22;;;;;;;;;;;8.10;99.90;;;;;;5003017;28;19925;-73